Terminal Aerodrome Forecast
Issued by NWS Flagstaff, AZ

Home | Current Version | Previous Version | Text Only | Print | Product List | Glossary On
Versions: 1 2 3 4 5 6 7 8 9 10 11 12 13 14 15 16 17
386
FTUS45 KFGZ 201120
TAFINW
TAF
KINW 201120Z 2012/2112 22010KT P6SM SKC
     FM201630 29019G28KT P6SM BKN060
     FM210200 30008KT P6SM FEW060=

USA.gov is the U.S. government's official web portal to all federal, state and local government web resources and services.